sensor_id;sensor_type;location;lat;lon;timestamp;P1;durP1;ratioP1;P2;durP2;ratioP2
76107;SDS011;64834;52.516;10.528;2022-11-15T00:00:01;16.90;;;9.48;;
76107;SDS011;64834;52.516;10.528;2022-11-15T00:02:28;17.27;;;8.60;;
76107;SDS011;64834;52.516;10.528;2022-11-15T00:04:53;14.52;;;9.07;;
76107;SDS011;64834;52.516;10.528;2022-11-15T00:07:18;16.23;;;9.05;;
76107;SDS011;64834;52.516;10.528;2022-11-15T00:09:44;12.75;;;7.28;;
76107;SDS011;64834;52.516;10.528;2022-11-15T00:12:09;16.80;;;9.35;;
76107;SDS011;64834;52.516;10.528;2022-11-15T00:14:34;17.02;;;9.82;;
76107;SDS011;64834;52.516;10.528;2022-11-15T00:17:00;15.63;;;8.30;;
76107;SDS011;64834;52.516;10.528;2022-11-15T00:19:25;14.43;;;7.75;;
76107;SDS011;64834;52.516;10.528;2022-11-15T00:21:50;16.63;;;9.18;;
76107;SDS011;64834;52.516;10.528;2022-11-15T00:24:15;13.15;;;6.95;;
76107;SDS011;64834;52.516;10.528;2022-11-15T00:26:41;16.42;;;8.48;;
76107;SDS011;64834;52.516;10.528;2022-11-15T00:29:06;14.98;;;7.88;;
76107;SDS011;64834;52.516;10.528;2022-11-15T00:31:32;15.30;;;9.40;;
76107;SDS011;64834;52.516;10.528;2022-11-15T00:33:57;16.23;;;8.50;;
76107;SDS011;64834;52.516;10.528;2022-11-15T00:36:22;15.18;;;8.52;;
76107;SDS011;64834;52.516;10.528;2022-11-15T00:38:47;14.45;;;7.68;;
76107;SDS011;64834;52.516;10.528;2022-11-15T00:41:13;16.90;;;8.80;;
76107;SDS011;64834;52.516;10.528;2022-11-15T00:43:38;16.05;;;7.95;;
76107;SDS011;64834;52.516;10.528;2022-11-15T00:46:04;16.55;;;8.90;;
76107;SDS011;64834;52.516;10.528;2022-11-15T00:48:30;17.90;;;9.40;;
76107;SDS011;64834;52.516;10.528;2022-11-15T00:50:57;15.15;;;7.90;;
76107;SDS011;64834;52.516;10.528;2022-11-15T00:53:22;16.25;;;9.88;;
76107;SDS011;64834;52.516;10.528;2022-11-15T00:55:48;20.08;;;10.20;;
76107;SDS011;64834;52.516;10.528;2022-11-15T00:58:13;19.52;;;10.23;;
76107;SDS011;64834;52.516;10.528;2022-11-15T01:00:38;26.90;;;12.10;;
76107;SDS011;64834;52.516;10.528;2022-11-15T01:03:04;23.30;;;10.40;;
76107;SDS011;64834;52.516;10.528;2022-11-15T01:05:29;19.55;;;9.77;;
76107;SDS011;64834;52.516;10.528;2022-11-15T01:07:55;17.85;;;9.00;;
76107;SDS011;64834;52.516;10.528;2022-11-15T01:10:21;17.45;;;9.73;;
76107;SDS011;64834;52.516;10.528;2022-11-15T01:12:47;19.92;;;9.60;;
76107;SDS011;64834;52.516;10.528;2022-11-15T01:15:13;19.33;;;8.95;;
76107;SDS011;64834;52.516;10.528;2022-11-15T01:17:38;19.63;;;8.85;;
76107;SDS011;64834;52.516;10.528;2022-11-15T01:20:04;17.33;;;9.32;;
76107;SDS011;64834;52.516;10.528;2022-11-15T01:22:30;15.98;;;8.95;;
76107;SDS011;64834;52.516;10.528;2022-11-15T01:24:55;17.35;;;8.50;;
76107;SDS011;64834;52.516;10.528;2022-11-15T01:27:20;15.02;;;7.85;;
76107;SDS011;64834;52.516;10.528;2022-11-15T01:29:46;15.52;;;7.80;;
76107;SDS011;64834;52.516;10.528;2022-11-15T01:32:11;16.20;;;8.40;;
76107;SDS011;64834;52.516;10.528;2022-11-15T01:34:36;15.35;;;8.05;;
76107;SDS011;64834;52.516;10.528;2022-11-15T01:37:02;15.88;;;8.25;;
76107;SDS011;64834;52.516;10.528;2022-11-15T01:39:27;15.43;;;7.80;;
76107;SDS011;64834;52.516;10.528;2022-11-15T01:41:52;18.17;;;8.70;;
76107;SDS011;64834;52.516;10.528;2022-11-15T01:46:56;13.93;;;7.68;;
76107;SDS011;64834;52.516;10.528;2022-11-15T01:49:24;15.98;;;8.27;;
76107;SDS011;64834;52.516;10.528;2022-11-15T01:51:52;19.80;;;9.30;;
76107;SDS011;64834;52.516;10.528;2022-11-15T01:54:19;17.48;;;9.40;;
76107;SDS011;64834;52.516;10.528;2022-11-15T01:56:48;19.35;;;9.23;;
76107;SDS011;64834;52.516;10.528;2022-11-15T01:59:20;17.95;;;9.13;;
76107;SDS011;64834;52.516;10.528;2022-11-15T02:01:46;17.27;;;8.80;;
76107;SDS011;64834;52.516;10.528;2022-11-15T02:04:16;14.95;;;8.25;;
76107;SDS011;64834;52.516;10.528;2022-11-15T02:06:45;17.02;;;8.27;;
76107;SDS011;64834;52.516;10.528;2022-11-15T02:09:13;17.35;;;9.20;;
76107;SDS011;64834;52.516;10.528;2022-11-15T02:11:38;14.93;;;8.55;;
76107;SDS011;64834;52.516;10.528;2022-11-15T02:14:04;15.52;;;7.68;;
76107;SDS011;64834;52.516;10.528;2022-11-15T02:22:02;17.02;;;8.70;;
76107;SDS011;64834;52.516;10.528;2022-11-15T02:27:35;19.58;;;10.05;;
76107;SDS011;64834;52.516;10.528;2022-11-15T02:30:29;19.48;;;9.45;;
76107;SDS011;64834;52.516;10.528;2022-11-15T02:36:10;17.77;;;8.50;;
76107;SDS011;64834;52.516;10.528;2022-11-15T02:44:21;17.27;;;9.02;;
76107;SDS011;64834;52.516;10.528;2022-11-15T02:46:52;19.25;;;9.02;;
76107;SDS011;64834;52.516;10.528;2022-11-15T02:49:49;17.85;;;8.45;;
76107;SDS011;64834;52.516;10.528;2022-11-15T02:52:17;17.98;;;8.60;;
76107;SDS011;64834;52.516;10.528;2022-11-15T02:54:52;16.63;;;9.15;;
76107;SDS011;64834;52.516;10.528;2022-11-15T02:57:20;18.80;;;9.95;;
76107;SDS011;64834;52.516;10.528;2022-11-15T03:00:04;19.17;;;10.00;;
76107;SDS011;64834;52.516;10.528;2022-11-15T03:02:47;17.52;;;9.40;;
76107;SDS011;64834;52.516;10.528;2022-11-15T03:07:55;14.80;;;7.78;;
76107;SDS011;64834;52.516;10.528;2022-11-15T03:10:39;16.13;;;8.48;;
76107;SDS011;64834;52.516;10.528;2022-11-15T03:13:21;18.73;;;9.27;;
76107;SDS011;64834;52.516;10.528;2022-11-15T03:16:03;17.00;;;8.60;;
76107;SDS011;64834;52.516;10.528;2022-11-15T03:18:33;17.63;;;9.73;;
76107;SDS011;64834;52.516;10.528;2022-11-15T03:21:03;18.50;;;9.88;;
76107;SDS011;64834;52.516;10.528;2022-11-15T03:23:32;20.92;;;10.30;;
76107;SDS011;64834;52.516;10.528;2022-11-15T03:26:00;26.38;;;12.40;;
76107;SDS011;64834;52.516;10.528;2022-11-15T03:28:33;22.67;;;12.63;;
76107;SDS011;64834;52.516;10.528;2022-11-15T03:31:02;20.58;;;10.45;;
76107;SDS011;64834;52.516;10.528;2022-11-15T03:33:52;23.58;;;11.10;;
76107;SDS011;64834;52.516;10.528;2022-11-15T03:36:20;22.40;;;10.98;;
76107;SDS011;64834;52.516;10.528;2022-11-15T03:38:47;19.90;;;10.32;;
76107;SDS011;64834;52.516;10.528;2022-11-15T03:41:15;21.95;;;10.77;;
76107;SDS011;64834;52.516;10.528;2022-11-15T03:46:50;22.58;;;10.43;;
76107;SDS011;64834;52.516;10.528;2022-11-15T03:49:32;24.35;;;12.05;;
76107;SDS011;64834;52.516;10.528;2022-11-15T03:51:59;28.80;;;13.05;;
76107;SDS011;64834;52.516;10.528;2022-11-15T03:54:26;26.55;;;12.07;;
76107;SDS011;64834;52.516;10.528;2022-11-15T03:56:52;27.50;;;12.60;;
76107;SDS011;64834;52.516;10.528;2022-11-15T03:59:17;23.40;;;12.07;;
76107;SDS011;64834;52.516;10.528;2022-11-15T04:01:42;21.13;;;10.90;;
76107;SDS011;64834;52.516;10.528;2022-11-15T04:04:08;19.10;;;11.40;;
76107;SDS011;64834;52.516;10.528;2022-11-15T04:06:33;20.27;;;10.60;;
76107;SDS011;64834;52.516;10.528;2022-11-15T04:08:58;18.50;;;10.43;;
76107;SDS011;64834;52.516;10.528;2022-11-15T04:11:24;17.67;;;9.98;;
76107;SDS011;64834;52.516;10.528;2022-11-15T04:13:49;19.65;;;9.93;;
76107;SDS011;64834;52.516;10.528;2022-11-15T04:16:14;22.52;;;10.75;;
76107;SDS011;64834;52.516;10.528;2022-11-15T04:18:40;20.73;;;10.00;;
76107;SDS011;64834;52.516;10.528;2022-11-15T04:21:05;21.75;;;10.98;;
76107;SDS011;64834;52.516;10.528;2022-11-15T04:23:49;19.48;;;10.23;;
76107;SDS011;64834;52.516;10.528;2022-11-15T04:26:29;23.42;;;11.55;;
76107;SDS011;64834;52.516;10.528;2022-11-15T04:28:54;23.50;;;12.82;;
76107;SDS011;64834;52.516;10.528;2022-11-15T04:31:38;18.40;;;10.35;;
76107;SDS011;64834;52.516;10.528;2022-11-15T04:34:03;19.48;;;10.27;;
76107;SDS011;64834;52.516;10.528;2022-11-15T04:36:29;18.00;;;9.68;;
76107;SDS011;64834;52.516;10.528;2022-11-15T04:39:12;17.67;;;9.70;;
76107;SDS011;64834;52.516;10.528;2022-11-15T04:41:38;19.08;;;9.70;;
76107;SDS011;64834;52.516;10.528;2022-11-15T04:44:03;17.08;;;8.68;;
76107;SDS011;64834;52.516;10.528;2022-11-15T04:46:28;15.65;;;9.20;;
76107;SDS011;64834;52.516;10.528;2022-11-15T04:48:54;17.17;;;8.73;;
76107;SDS011;64834;52.516;10.528;2022-11-15T04:51:20;17.00;;;8.20;;
76107;SDS011;64834;52.516;10.528;2022-11-15T04:53:45;23.48;;;11.43;;
76107;SDS011;64834;52.516;10.528;2022-11-15T04:56:11;32.50;;;15.57;;
76107;SDS011;64834;52.516;10.528;2022-11-15T04:58:36;26.88;;;15.50;;
76107;SDS011;64834;52.516;10.528;2022-11-15T05:01:08;22.88;;;12.80;;
76107;SDS011;64834;52.516;10.528;2022-11-15T05:03:34;23.65;;;15.93;;
76107;SDS011;64834;52.516;10.528;2022-11-15T05:06:19;19.45;;;10.35;;
76107;SDS011;64834;52.516;10.528;2022-11-15T05:08:44;20.73;;;10.90;;
76107;SDS011;64834;52.516;10.528;2022-11-15T05:11:09;19.70;;;9.13;;
76107;SDS011;64834;52.516;10.528;2022-11-15T05:13:35;18.83;;;9.65;;
76107;SDS011;64834;52.516;10.528;2022-11-15T05:16:00;18.30;;;9.13;;
76107;SDS011;64834;52.516;10.528;2022-11-15T05:18:25;16.15;;;8.40;;
76107;SDS011;64834;52.516;10.528;2022-11-15T05:20:51;14.43;;;7.70;;
76107;SDS011;64834;52.516;10.528;2022-11-15T05:23:16;16.63;;;9.38;;
76107;SDS011;64834;52.516;10.528;2022-11-15T05:25:41;17.80;;;9.32;;
76107;SDS011;64834;52.516;10.528;2022-11-15T05:28:07;17.23;;;8.90;;
76107;SDS011;64834;52.516;10.528;2022-11-15T05:30:32;20.92;;;10.35;;
76107;SDS011;64834;52.516;10.528;2022-11-15T05:32:57;15.80;;;8.80;;
76107;SDS011;64834;52.516;10.528;2022-11-15T05:35:42;20.42;;;10.65;;
76107;SDS011;64834;52.516;10.528;2022-11-15T05:38:13;22.95;;;11.35;;
76107;SDS011;64834;52.516;10.528;2022-11-15T05:40:39;23.10;;;11.10;;
76107;SDS011;64834;52.516;10.528;2022-11-15T05:43:04;17.10;;;9.20;;
76107;SDS011;64834;52.516;10.528;2022-11-15T05:45:31;22.05;;;9.35;;
76107;SDS011;64834;52.516;10.528;2022-11-15T05:50:25;20.15;;;10.75;;
76107;SDS011;64834;52.516;10.528;2022-11-15T05:52:51;20.10;;;10.93;;
76107;SDS011;64834;52.516;10.528;2022-11-15T05:55:16;22.05;;;11.18;;
76107;SDS011;64834;52.516;10.528;2022-11-15T05:57:42;22.98;;;11.27;;
76107;SDS011;64834;52.516;10.528;2022-11-15T06:00:08;20.35;;;10.48;;
76107;SDS011;64834;52.516;10.528;2022-11-15T06:02:34;19.50;;;10.05;;
76107;SDS011;64834;52.516;10.528;2022-11-15T06:04:59;17.88;;;9.70;;
76107;SDS011;64834;52.516;10.528;2022-11-15T06:07:25;18.77;;;9.95;;
76107;SDS011;64834;52.516;10.528;2022-11-15T06:09:50;15.50;;;8.15;;
76107;SDS011;64834;52.516;10.528;2022-11-15T06:12:15;24.38;;;11.13;;
76107;SDS011;64834;52.516;10.528;2022-11-15T06:14:41;21.20;;;10.75;;
76107;SDS011;64834;52.516;10.528;2022-11-15T06:17:06;22.17;;;11.27;;
76107;SDS011;64834;52.516;10.528;2022-11-15T06:19:31;21.40;;;10.45;;
76107;SDS011;64834;52.516;10.528;2022-11-15T06:21:58;21.00;;;9.80;;
76107;SDS011;64834;52.516;10.528;2022-11-15T06:24:24;18.95;;;9.98;;
76107;SDS011;64834;52.516;10.528;2022-11-15T06:26:49;19.88;;;10.07;;
76107;SDS011;64834;52.516;10.528;2022-11-15T06:29:15;17.90;;;9.77;;
76107;SDS011;64834;52.516;10.528;2022-11-15T06:31:40;18.00;;;9.52;;
76107;SDS011;64834;52.516;10.528;2022-11-15T06:34:05;17.98;;;9.80;;
76107;SDS011;64834;52.516;10.528;2022-11-15T06:36:31;17.67;;;9.10;;
76107;SDS011;64834;52.516;10.528;2022-11-15T06:38:59;17.38;;;9.98;;
76107;SDS011;64834;52.516;10.528;2022-11-15T06:41:25;31.70;;;15.07;;
76107;SDS011;64834;52.516;10.528;2022-11-15T06:43:50;29.77;;;15.52;;
76107;SDS011;64834;52.516;10.528;2022-11-15T06:46:15;35.97;;;18.38;;
76107;SDS011;64834;52.516;10.528;2022-11-15T06:48:41;32.85;;;16.13;;
76107;SDS011;64834;52.516;10.528;2022-11-15T06:51:06;21.33;;;12.23;;
76107;SDS011;64834;52.516;10.528;2022-11-15T06:53:32;23.10;;;12.27;;
76107;SDS011;64834;52.516;10.528;2022-11-15T06:55:59;20.13;;;11.35;;
76107;SDS011;64834;52.516;10.528;2022-11-15T06:58:26;25.42;;;11.88;;
76107;SDS011;64834;52.516;10.528;2022-11-15T07:00:51;24.80;;;13.25;;
76107;SDS011;64834;52.516;10.528;2022-11-15T07:03:17;20.27;;;11.20;;
76107;SDS011;64834;52.516;10.528;2022-11-15T07:05:42;19.92;;;10.77;;
76107;SDS011;64834;52.516;10.528;2022-11-15T07:08:16;17.27;;;9.05;;
76107;SDS011;64834;52.516;10.528;2022-11-15T07:10:41;23.23;;;12.07;;
76107;SDS011;64834;52.516;10.528;2022-11-15T07:13:06;17.23;;;10.13;;
76107;SDS011;64834;52.516;10.528;2022-11-15T07:15:31;18.83;;;9.93;;
76107;SDS011;64834;52.516;10.528;2022-11-15T07:18:00;15.70;;;9.23;;
76107;SDS011;64834;52.516;10.528;2022-11-15T07:20:25;21.02;;;10.05;;
76107;SDS011;64834;52.516;10.528;2022-11-15T07:22:51;19.58;;;9.75;;
76107;SDS011;64834;52.516;10.528;2022-11-15T07:25:24;19.92;;;9.32;;
76107;SDS011;64834;52.516;10.528;2022-11-15T07:27:56;18.00;;;9.77;;
76107;SDS011;64834;52.516;10.528;2022-11-15T07:30:22;19.98;;;11.27;;
76107;SDS011;64834;52.516;10.528;2022-11-15T07:32:52;21.60;;;11.80;;
76107;SDS011;64834;52.516;10.528;2022-11-15T07:35:21;23.17;;;10.63;;
76107;SDS011;64834;52.516;10.528;2022-11-15T07:38:00;20.67;;;10.73;;
76107;SDS011;64834;52.516;10.528;2022-11-15T07:40:27;20.30;;;9.82;;
76107;SDS011;64834;52.516;10.528;2022-11-15T07:42:58;19.00;;;10.57;;
76107;SDS011;64834;52.516;10.528;2022-11-15T07:45:28;20.27;;;8.85;;
76107;SDS011;64834;52.516;10.528;2022-11-15T07:47:54;20.08;;;9.75;;
76107;SDS011;64834;52.516;10.528;2022-11-15T07:50:21;16.73;;;8.70;;
76107;SDS011;64834;52.516;10.528;2022-11-15T07:52:47;19.77;;;10.00;;
76107;SDS011;64834;52.516;10.528;2022-11-15T07:55:12;16.38;;;9.05;;
76107;SDS011;64834;52.516;10.528;2022-11-15T07:57:38;19.55;;;10.18;;
76107;SDS011;64834;52.516;10.528;2022-11-15T08:00:04;20.77;;;10.55;;
76107;SDS011;64834;52.516;10.528;2022-11-15T08:02:30;16.60;;;9.30;;
76107;SDS011;64834;52.516;10.528;2022-11-15T08:04:55;16.17;;;8.63;;
76107;SDS011;64834;52.516;10.528;2022-11-15T08:07:21;19.02;;;9.52;;
76107;SDS011;64834;52.516;10.528;2022-11-15T08:09:46;18.35;;;9.00;;
76107;SDS011;64834;52.516;10.528;2022-11-15T08:12:11;19.25;;;8.70;;
76107;SDS011;64834;52.516;10.528;2022-11-15T08:14:37;20.27;;;10.75;;
76107;SDS011;64834;52.516;10.528;2022-11-15T08:17:03;17.40;;;9.60;;
76107;SDS011;64834;52.516;10.528;2022-11-15T08:19:28;21.02;;;10.50;;
76107;SDS011;64834;52.516;10.528;2022-11-15T08:21:54;19.13;;;9.15;;
76107;SDS011;64834;52.516;10.528;2022-11-15T08:24:19;16.38;;;9.45;;
76107;SDS011;64834;52.516;10.528;2022-11-15T08:26:45;19.65;;;11.70;;
76107;SDS011;64834;52.516;10.528;2022-11-15T08:29:10;19.33;;;10.57;;
76107;SDS011;64834;52.516;10.528;2022-11-15T08:31:36;19.38;;;10.77;;
76107;SDS011;64834;52.516;10.528;2022-11-15T08:34:02;16.90;;;9.60;;
76107;SDS011;64834;52.516;10.528;2022-11-15T08:36:28;16.98;;;10.35;;
76107;SDS011;64834;52.516;10.528;2022-11-15T08:38:54;18.70;;;10.48;;
76107;SDS011;64834;52.516;10.528;2022-11-15T08:41:24;36.95;;;10.70;;
76107;SDS011;64834;52.516;10.528;2022-11-15T08:43:52;16.08;;;9.07;;
76107;SDS011;64834;52.516;10.528;2022-11-15T08:46:17;17.20;;;8.73;;
76107;SDS011;64834;52.516;10.528;2022-11-15T08:48:43;11.85;;;8.48;;
76107;SDS011;64834;52.516;10.528;2022-11-15T08:51:09;13.77;;;8.05;;
76107;SDS011;64834;52.516;10.528;2022-11-15T08:53:34;12.07;;;8.05;;
76107;SDS011;64834;52.516;10.528;2022-11-15T08:55:59;13.65;;;8.30;;
76107;SDS011;64834;52.516;10.528;2022-11-15T08:58:25;9.43;;;6.82;;
76107;SDS011;64834;52.516;10.528;2022-11-15T09:00:50;10.10;;;5.97;;
76107;SDS011;64834;52.516;10.528;2022-11-15T09:03:15;12.68;;;6.57;;
76107;SDS011;64834;52.516;10.528;2022-11-15T09:05:41;11.27;;;6.30;;
76107;SDS011;64834;52.516;10.528;2022-11-15T09:08:06;13.13;;;6.82;;
76107;SDS011;64834;52.516;10.528;2022-11-15T09:10:31;12.02;;;7.50;;
76107;SDS011;64834;52.516;10.528;2022-11-15T09:12:57;13.25;;;7.43;;
76107;SDS011;64834;52.516;10.528;2022-11-15T09:15:22;10.05;;;6.85;;
76107;SDS011;64834;52.516;10.528;2022-11-15T09:17:48;10.60;;;6.65;;
76107;SDS011;64834;52.516;10.528;2022-11-15T09:20:13;11.88;;;6.60;;
76107;SDS011;64834;52.516;10.528;2022-11-15T09:22:39;11.20;;;7.13;;
76107;SDS011;64834;52.516;10.528;2022-11-15T09:25:05;12.00;;;7.30;;
76107;SDS011;64834;52.516;10.528;2022-11-15T09:27:31;11.48;;;5.60;;
76107;SDS011;64834;52.516;10.528;2022-11-15T09:29:57;11.02;;;5.78;;
76107;SDS011;64834;52.516;10.528;2022-11-15T09:32:22;11.27;;;5.45;;
76107;SDS011;64834;52.516;10.528;2022-11-15T09:34:48;11.73;;;5.80;;
76107;SDS011;64834;52.516;10.528;2022-11-15T09:37:14;8.05;;;4.80;;
76107;SDS011;64834;52.516;10.528;2022-11-15T09:39:39;7.57;;;5.10;;
76107;SDS011;64834;52.516;10.528;2022-11-15T09:42:26;8.15;;;4.53;;
76107;SDS011;64834;52.516;10.528;2022-11-15T09:45:17;8.00;;;4.88;;
76107;SDS011;64834;52.516;10.528;2022-11-15T09:51:12;6.13;;;4.10;;
76107;SDS011;64834;52.516;10.528;2022-11-15T09:56:14;8.50;;;4.95;;
76107;SDS011;64834;52.516;10.528;2022-11-15T10:01:36;7.72;;;4.90;;
76107;SDS011;64834;52.516;10.528;2022-11-15T10:04:22;7.70;;;3.92;;
76107;SDS011;64834;52.516;10.528;2022-11-15T10:07:24;6.18;;;3.60;;
76107;SDS011;64834;52.516;10.528;2022-11-15T10:09:54;7.43;;;4.00;;
76107;SDS011;64834;52.516;10.528;2022-11-15T10:12:24;6.18;;;3.53;;
76107;SDS011;64834;52.516;10.528;2022-11-15T10:15:03;6.40;;;4.35;;
76107;SDS011;64834;52.516;10.528;2022-11-15T10:20:34;8.52;;;4.40;;
76107;SDS011;64834;52.516;10.528;2022-11-15T10:23:13;8.60;;;4.00;;
76107;SDS011;64834;52.516;10.528;2022-11-15T10:25:41;6.25;;;3.95;;
76107;SDS011;64834;52.516;10.528;2022-11-15T10:30:39;6.93;;;4.32;;
76107;SDS011;64834;52.516;10.528;2022-11-15T10:44:18;5.80;;;3.70;;
76107;SDS011;64834;52.516;10.528;2022-11-15T10:46:47;9.65;;;4.65;;
76107;SDS011;64834;52.516;10.528;2022-11-15T10:49:29;5.68;;;3.20;;
76107;SDS011;64834;52.516;10.528;2022-11-15T10:52:00;5.35;;;3.38;;
76107;SDS011;64834;52.516;10.528;2022-11-15T10:54:30;5.80;;;3.47;;
76107;SDS011;64834;52.516;10.528;2022-11-15T10:57:08;6.32;;;3.65;;
76107;SDS011;64834;52.516;10.528;2022-11-15T10:59:42;6.35;;;3.80;;
76107;SDS011;64834;52.516;10.528;2022-11-15T11:02:27;6.43;;;3.90;;
76107;SDS011;64834;52.516;10.528;2022-11-15T11:04:53;6.25;;;3.60;;
76107;SDS011;64834;52.516;10.528;2022-11-15T11:07:22;5.88;;;3.63;;
76107;SDS011;64834;52.516;10.528;2022-11-15T11:10:23;6.32;;;3.50;;
76107;SDS011;64834;52.516;10.528;2022-11-15T11:12:44;8.55;;;3.55;;
76107;SDS011;64834;52.516;10.528;2022-11-15T11:15:11;5.43;;;3.60;;
76107;SDS011;64834;52.516;10.528;2022-11-15T11:20:39;6.20;;;3.45;;
76107;SDS011;64834;52.516;10.528;2022-11-15T11:23:16;5.18;;;3.33;;
76107;SDS011;64834;52.516;10.528;2022-11-15T11:28:54;8.65;;;4.05;;
76107;SDS011;64834;52.516;10.528;2022-11-15T11:37:11;6.10;;;4.35;;
76107;SDS011;64834;52.516;10.528;2022-11-15T11:45:10;24.80;;;14.40;;
76107;SDS011;64834;52.516;10.528;2022-11-15T11:50:29;10.00;;;4.95;;
76107;SDS011;64834;52.516;10.528;2022-11-15T11:52:57;9.50;;;5.60;;
76107;SDS011;64834;52.516;10.528;2022-11-15T11:55:33;4.97;;;2.80;;
76107;SDS011;64834;52.516;10.528;2022-11-15T12:00:52;3.88;;;2.65;;
76107;SDS011;64834;52.516;10.528;2022-11-15T12:03:40;5.47;;;2.92;;
76107;SDS011;64834;52.516;10.528;2022-11-15T12:09:26;7.38;;;3.22;;
76107;SDS011;64834;52.516;10.528;2022-11-15T12:14:57;6.13;;;3.30;;
76107;SDS011;64834;52.516;10.528;2022-11-15T12:17:28;7.82;;;3.65;;
76107;SDS011;64834;52.516;10.528;2022-11-15T12:19:58;5.30;;;3.08;;
76107;SDS011;64834;52.516;10.528;2022-11-15T12:22:40;5.63;;;3.22;;
76107;SDS011;64834;52.516;10.528;2022-11-15T12:27:56;4.97;;;3.30;;
76107;SDS011;64834;52.516;10.528;2022-11-15T12:30:27;8.00;;;2.85;;
76107;SDS011;64834;52.516;10.528;2022-11-15T12:33:15;4.55;;;3.17;;
76107;SDS011;64834;52.516;10.528;2022-11-15T12:36:05;9.30;;;3.63;;
76107;SDS011;64834;52.516;10.528;2022-11-15T12:43:40;5.40;;;3.75;;
76107;SDS011;64834;52.516;10.528;2022-11-15T12:46:13;7.75;;;3.63;;
76107;SDS011;64834;52.516;10.528;2022-11-15T12:51:08;6.03;;;3.90;;
76107;SDS011;64834;52.516;10.528;2022-11-15T12:53:34;7.93;;;3.75;;
76107;SDS011;64834;52.516;10.528;2022-11-15T12:56:17;6.30;;;3.58;;
76107;SDS011;64834;52.516;10.528;2022-11-15T12:58:52;5.05;;;3.22;;
76107;SDS011;64834;52.516;10.528;2022-11-15T13:06:47;5.53;;;3.00;;
76107;SDS011;64834;52.516;10.528;2022-11-15T13:12:00;7.22;;;3.35;;
76107;SDS011;64834;52.516;10.528;2022-11-15T13:19:48;4.95;;;2.90;;
76107;SDS011;64834;52.516;10.528;2022-11-15T13:22:22;6.20;;;2.95;;
76107;SDS011;64834;52.516;10.528;2022-11-15T13:25:14;3.70;;;2.40;;
76107;SDS011;64834;52.516;10.528;2022-11-15T13:27:44;4.30;;;2.70;;
76107;SDS011;64834;52.516;10.528;2022-11-15T13:30:21;3.60;;;2.50;;
76107;SDS011;64834;52.516;10.528;2022-11-15T13:32:49;5.57;;;2.60;;
76107;SDS011;64834;52.516;10.528;2022-11-15T13:35:20;7.80;;;3.05;;
76107;SDS011;64834;52.516;10.528;2022-11-15T13:37:47;4.55;;;2.53;;
76107;SDS011;64834;52.516;10.528;2022-11-15T13:40:24;5.63;;;3.00;;
76107;SDS011;64834;52.516;10.528;2022-11-15T13:42:57;3.83;;;2.45;;
76107;SDS011;64834;52.516;10.528;2022-11-15T13:45:23;7.90;;;3.35;;
76107;SDS011;64834;52.516;10.528;2022-11-15T13:47:55;7.82;;;3.58;;
76107;SDS011;64834;52.516;10.528;2022-11-15T13:50:27;5.15;;;3.25;;
76107;SDS011;64834;52.516;10.528;2022-11-15T13:52:58;5.80;;;3.80;;
76107;SDS011;64834;52.516;10.528;2022-11-15T13:55:27;8.32;;;4.20;;
76107;SDS011;64834;52.516;10.528;2022-11-15T13:57:58;6.63;;;4.20;;
76107;SDS011;64834;52.516;10.528;2022-11-15T14:03:15;6.32;;;3.65;;
76107;SDS011;64834;52.516;10.528;2022-11-15T14:06:07;6.05;;;3.97;;
76107;SDS011;64834;52.516;10.528;2022-11-15T14:08:37;8.15;;;5.22;;
76107;SDS011;64834;52.516;10.528;2022-11-15T14:14:04;8.07;;;4.43;;
76107;SDS011;64834;52.516;10.528;2022-11-15T14:16:37;9.52;;;4.63;;
76107;SDS011;64834;52.516;10.528;2022-11-15T14:19:04;8.85;;;4.35;;
76107;SDS011;64834;52.516;10.528;2022-11-15T14:21:31;17.92;;;4.95;;
76107;SDS011;64834;52.516;10.528;2022-11-15T14:26:45;8.05;;;4.28;;
76107;SDS011;64834;52.516;10.528;2022-11-15T14:29:24;7.45;;;4.38;;
76107;SDS011;64834;52.516;10.528;2022-11-15T14:31:51;9.13;;;4.10;;
76107;SDS011;64834;52.516;10.528;2022-11-15T14:34:17;7.80;;;5.40;;
76107;SDS011;64834;52.516;10.528;2022-11-15T14:36:42;16.42;;;5.47;;
76107;SDS011;64834;52.516;10.528;2022-11-15T14:39:08;86.47;;;12.00;;
76107;SDS011;64834;52.516;10.528;2022-11-15T14:41:34;9.88;;;4.80;;
76107;SDS011;64834;52.516;10.528;2022-11-15T14:44:02;8.35;;;4.65;;
76107;SDS011;64834;52.516;10.528;2022-11-15T14:46:29;7.90;;;4.28;;
76107;SDS011;64834;52.516;10.528;2022-11-15T14:48:54;10.95;;;5.15;;
76107;SDS011;64834;52.516;10.528;2022-11-15T14:51:19;7.78;;;4.93;;
76107;SDS011;64834;52.516;10.528;2022-11-15T14:53:45;8.07;;;4.47;;
76107;SDS011;64834;52.516;10.528;2022-11-15T14:56:11;7.10;;;4.25;;
76107;SDS011;64834;52.516;10.528;2022-11-15T14:58:37;12.02;;;5.15;;
76107;SDS011;64834;52.516;10.528;2022-11-15T15:01:05;30.55;;;7.22;;
76107;SDS011;64834;52.516;10.528;2022-11-15T15:03:37;12.48;;;4.93;;
76107;SDS011;64834;52.516;10.528;2022-11-15T15:06:02;8.50;;;4.90;;
76107;SDS011;64834;52.516;10.528;2022-11-15T15:08:28;9.90;;;5.85;;
76107;SDS011;64834;52.516;10.528;2022-11-15T15:10:53;18.48;;;10.25;;
76107;SDS011;64834;52.516;10.528;2022-11-15T15:13:23;12.02;;;6.80;;
76107;SDS011;64834;52.516;10.528;2022-11-15T15:15:50;10.82;;;6.10;;
76107;SDS011;64834;52.516;10.528;2022-11-15T15:18:16;9.10;;;5.45;;
76107;SDS011;64834;52.516;10.528;2022-11-15T15:20:43;10.50;;;6.03;;
76107;SDS011;64834;52.516;10.528;2022-11-15T15:23:17;12.73;;;6.03;;
76107;SDS011;64834;52.516;10.528;2022-11-15T15:25:44;10.27;;;6.13;;
76107;SDS011;64834;52.516;10.528;2022-11-15T15:28:11;10.10;;;6.00;;
76107;SDS011;64834;52.516;10.528;2022-11-15T15:30:37;10.02;;;6.10;;
76107;SDS011;64834;52.516;10.528;2022-11-15T15:33:02;10.07;;;6.43;;
76107;SDS011;64834;52.516;10.528;2022-11-15T15:35:29;9.20;;;5.43;;
76107;SDS011;64834;52.516;10.528;2022-11-15T15:37:56;8.90;;;4.90;;
76107;SDS011;64834;52.516;10.528;2022-11-15T15:40:22;9.93;;;5.45;;
76107;SDS011;64834;52.516;10.528;2022-11-15T15:42:49;9.77;;;5.65;;
76107;SDS011;64834;52.516;10.528;2022-11-15T15:45:15;9.85;;;5.32;;
76107;SDS011;64834;52.516;10.528;2022-11-15T15:47:41;12.13;;;5.88;;
76107;SDS011;64834;52.516;10.528;2022-11-15T15:50:14;10.75;;;5.97;;
76107;SDS011;64834;52.516;10.528;2022-11-15T15:52:51;12.05;;;6.70;;
76107;SDS011;64834;52.516;10.528;2022-11-15T15:55:19;9.93;;;6.05;;
76107;SDS011;64834;52.516;10.528;2022-11-15T15:57:44;7.97;;;5.35;;
76107;SDS011;64834;52.516;10.528;2022-11-15T16:00:10;11.25;;;6.07;;
76107;SDS011;64834;52.516;10.528;2022-11-15T16:02:36;11.35;;;5.72;;
76107;SDS011;64834;52.516;10.528;2022-11-15T16:05:02;8.73;;;5.40;;
76107;SDS011;64834;52.516;10.528;2022-11-15T16:07:27;9.73;;;5.57;;
76107;SDS011;64834;52.516;10.528;2022-11-15T16:09:54;9.10;;;5.57;;
76107;SDS011;64834;52.516;10.528;2022-11-15T16:12:27;13.30;;;6.30;;
76107;SDS011;64834;52.516;10.528;2022-11-15T16:14:56;11.15;;;5.93;;
76107;SDS011;64834;52.516;10.528;2022-11-15T16:17:22;10.93;;;6.10;;
76107;SDS011;64834;52.516;10.528;2022-11-15T16:19:50;10.48;;;6.03;;
76107;SDS011;64834;52.516;10.528;2022-11-15T16:22:16;11.90;;;6.30;;
76107;SDS011;64834;52.516;10.528;2022-11-15T16:24:41;9.40;;;5.80;;